Time;durP1;ratioP1;P1;durP2;ratioP2;P2;SDS_P1;SDS_P2;PMS_P1;PMS_P2;Temp;Humidity;BMP_temperature;BMP_pressure;BME280_temperature;BME280_humidity;BME280_pressure;Samples;Min_cycle;Max_cycle;Signal;HPM_P1;HPM_P2
2024/03/21 00:01:35;;;;;;;16.47;7.90;;;6.10;99.90;;;;;;5009066;28;20034;-91
2024/03/21 00:04:02;;;;;;;17.43;7.43;;;6.10;99.90;;;;;;5009653;28;20068;-90
2024/03/21 00:06:28;;;;;;;17.67;7.67;;;6.10;99.90;;;;;;5008097;28;20040;-90
2024/03/21 00:08:55;;;;;;;11.80;7.00;;;6.10;99.90;;;;;;5006597;28;20162;-91
2024/03/21 00:11:21;;;;;;;11.23;7.40;;;6.10;99.90;;;;;;5008366;28;20042;-90
2024/03/21 00:13:46;;;;;;;13.30;7.27;;;6.10;99.90;;;;;;5008268;28;21089;-88
2024/03/21 00:16:12;;;;;;;15.00;7.00;;;6.00;99.90;;;;;;5007760;28;20018;-89
2024/03/21 00:18:38;;;;;;;16.53;7.00;;;6.00;99.90;;;;;;5007693;28;20011;-88
2024/03/21 00:21:04;;;;;;;10.93;5.93;;;6.00;99.90;;;;;;5008547;28;20056;-91
2024/03/21 00:23:30;;;;;;;17.23;6.60;;;6.00;99.90;;;;;;5008450;28;20062;-91
2024/03/21 00:26:00;;;;;;;13.10;6.60;;;6.00;99.90;;;;;;5006854;28;20202;-93
2024/03/21 00:28:26;;;;;;;16.07;7.13;;;5.90;99.90;;;;;;5007978;28;20098;-91
2024/03/21 00:30:54;;;;;;;14.73;5.50;;;5.90;99.90;;;;;;5008263;28;20038;-92
2024/03/21 00:33:20;;;;;;;13.00;5.83;;;5.90;99.90;;;;;;5023088;28;20045;-92
2024/03/21 00:35:46;;;;;;;20.83;6.33;;;5.90;99.90;;;;;;5007811;28;20050;-92
2024/03/21 00:38:12;;;;;;;15.57;6.23;;;5.80;99.90;;;;;;5007035;28;20118;-91
2024/03/21 00:40:38;;;;;;;13.67;6.40;;;5.80;99.90;;;;;;5006756;28;20216;-90
2024/03/21 00:43:04;;;;;;;13.63;7.00;;;5.80;99.90;;;;;;5007624;28;20030;-90
2024/03/21 00:45:30;;;;;;;12.50;5.73;;;5.80;99.90;;;;;;5023195;28;20026;-89
2024/03/21 00:48:02;;;;;;;8.33;5.83;;;5.70;99.90;;;;;;5008785;28;20033;-89
2024/03/21 00:50:29;;;;;;;16.93;6.10;;;5.70;99.90;;;;;;5009331;28;20046;-91
2024/03/21 00:52:54;;;;;;;17.73;6.47;;;5.60;99.90;;;;;;5008591;28;20037;-89
2024/03/21 00:55:20;;;;;;;17.47;6.80;;;5.60;99.90;;;;;;5007243;28;20023;-91
2024/03/21 00:57:46;;;;;;;18.37;6.50;;;5.60;99.90;;;;;;5007831;28;20126;-89
2024/03/21 01:00:13;;;;;;;20.87;6.50;;;5.60;99.90;;;;;;5008046;28;20030;-90
2024/03/21 01:02:40;;;;;;;15.70;6.27;;;5.50;99.90;;;;;;5007631;28;20087;-91
2024/03/21 01:05:06;;;;;;;13.53;6.43;;;5.50;99.90;;;;;;5008298;28;20046;-93
2024/03/21 01:07:32;;;;;;;9.10;5.93;;;5.50;99.90;;;;;;5008542;28;20045;-90
2024/03/21 01:09:58;;;;;;;12.97;6.00;;;5.50;99.90;;;;;;5008855;28;20007;-88
2024/03/21 01:12:23;;;;;;;13.83;6.40;;;5.50;99.90;;;;;;5008670;28;20037;-90
2024/03/21 01:14:49;;;;;;;15.27;6.10;;;5.50;99.90;;;;;;5007950;28;20102;-92
2024/03/21 01:17:15;;;;;;;13.37;6.37;;;5.50;99.90;;;;;;5006905;28;20034;-91
2024/03/21 01:19:40;;;;;;;11.20;5.50;;;5.40;99.90;;;;;;5007881;28;20030;-90
2024/03/21 01:22:06;;;;;;;10.97;6.20;;;5.40;99.90;;;;;;5007910;28;20538;-91
2024/03/21 01:24:32;;;;;;;11.53;6.23;;;5.30;99.90;;;;;;5008902;28;20039;-88
2024/03/21 01:26:58;;;;;;;15.07;6.17;;;5.30;99.90;;;;;;5007013;28;21164;-92
2024/03/21 01:29:23;;;;;;;13.83;6.40;;;5.30;99.90;;;;;;5008231;28;20026;-89
2024/03/21 01:31:49;;;;;;;14.17;6.30;;;5.20;99.90;;;;;;5009007;28;20019;-91
2024/03/21 01:34:15;;;;;;;10.37;5.87;;;5.20;99.90;;;;;;5008247;28;20094;-87
2024/03/21 01:36:52;;;;;;;9.47;6.00;;;5.20;99.90;;;;;;5007964;28;20034;-90
2024/03/21 01:39:19;;;;;;;9.77;6.20;;;5.20;99.90;;;;;;5008083;28;20045;-92
2024/03/21 01:41:45;;;;;;;10.90;5.93;;;5.10;99.90;;;;;;5008628;28;20099;-90
2024/03/21 01:44:19;;;;;;;15.33;5.90;;;5.10;99.90;;;;;;5023934;28;20006;-89
2024/03/21 01:46:46;;;;;;;9.65;5.63;;;5.10;99.90;;;;;;5008050;28;20094;-89
2024/03/21 01:49:12;;;;;;;11.80;5.53;;;5.00;99.90;;;;;;5008851;28;20057;-92
2024/03/21 01:51:39;;;;;;;8.80;5.93;;;5.00;99.90;;;;;;5007597;28;20033;-91
2024/03/21 01:54:07;;;;;;;9.80;5.70;;;5.00;99.90;;;;;;5008185;28;20041;-91
2024/03/21 01:56:37;;;;;;;7.93;5.40;;;4.90;99.90;;;;;;5007848;28;20022;-88
2024/03/21 01:59:06;;;;;;;8.83;6.03;;;4.90;99.90;;;;;;5008520;28;20026;-89
2024/03/21 02:01:32;;;;;;;9.03;5.50;;;4.80;99.90;;;;;;5009110;28;20038;-92
2024/03/21 02:04:00;;;;;;;9.73;5.50;;;4.80;99.90;;;;;;5008910;28;20034;-92
2024/03/21 02:06:28;;;;;;;9.50;5.33;;;4.80;99.90;;;;;;5023685;28;20094;-92
2024/03/21 02:08:54;;;;;;;7.60;5.30;;;4.80;99.90;;;;;;5023506;28;20035;-92
2024/03/21 02:11:21;;;;;;;11.10;5.73;;;4.80;99.90;;;;;;5008825;28;20022;-88
2024/03/21 02:13:51;;;;;;;7.97;5.27;;;4.80;99.90;;;;;;5005372;28;20049;-88
2024/03/21 02:16:17;;;;;;;14.27;6.13;;;4.80;99.90;;;;;;5004314;28;20049;-88
2024/03/21 02:18:42;;;;;;;10.20;5.60;;;4.80;99.90;;;;;;5009100;28;20073;-91
2024/03/21 02:23:53;;;;;;;11.83;6.17;;;4.70;99.90;;;;;;5008418;28;20036;-90
2024/03/21 02:26:18;;;;;;;9.13;5.33;;;4.80;99.90;;;;;;5007762;28;20033;-90
2024/03/21 02:28:44;;;;;;;12.30;5.53;;;4.70;99.90;;;;;;5006817;28;20026;-89
2024/03/21 02:31:10;;;;;;;9.57;5.30;;;4.80;99.90;;;;;;5006975;28;20026;-90
2024/03/21 02:33:35;;;;;;;10.47;6.43;;;4.70;99.90;;;;;;5009030;28;20065;-90
2024/03/21 02:36:01;;;;;;;9.60;6.03;;;4.70;99.90;;;;;;5007468;28;20094;-89
2024/03/21 02:38:26;;;;;;;10.70;5.97;;;4.70;99.90;;;;;;5007587;28;20022;-89
2024/03/21 02:40:52;;;;;;;9.63;5.10;;;4.70;99.90;;;;;;5022736;28;20042;-88
2024/03/21 02:43:18;;;;;;;8.17;5.50;;;4.80;99.90;;;;;;5007345;28;20014;-90
2024/03/21 02:45:43;;;;;;;9.47;5.60;;;4.80;99.90;;;;;;5007091;28;20030;-91
2024/03/21 02:48:09;;;;;;;7.57;4.80;;;4.80;99.90;;;;;;5007892;28;20037;-89
2024/03/21 02:50:36;;;;;;;9.17;5.37;;;4.80;99.90;;;;;;5008505;28;20007;-91
2024/03/21 02:53:04;;;;;;;10.67;6.03;;;4.80;99.90;;;;;;5007050;28;20022;-88
2024/03/21 02:55:30;;;;;;;9.27;4.93;;;4.80;99.90;;;;;;5007447;28;20057;-92
2024/03/21 02:57:55;;;;;;;6.90;4.80;;;4.70;99.90;;;;;;5008213;28;20011;-90
2024/03/21 03:00:21;;;;;;;8.47;5.00;;;4.80;99.90;;;;;;5006903;28;20018;-92
2024/03/21 03:02:48;;;;;;;6.97;4.90;;;4.80;99.90;;;;;;5007617;28;20050;-90
2024/03/21 03:05:15;;;;;;;6.83;5.43;;;4.80;99.90;;;;;;5005784;28;20030;-89
2024/03/21 03:07:40;;;;;;;8.07;4.50;;;4.80;99.90;;;;;;5007432;28;20072;-90
2024/03/21 03:10:07;;;;;;;12.97;5.10;;;4.80;99.90;;;;;;5007411;28;20093;-90
2024/03/21 03:12:33;;;;;;;6.90;4.70;;;4.70;99.90;;;;;;5007374;28;20026;-89
2024/03/21 03:15:00;;;;;;;7.27;4.47;;;4.80;99.90;;;;;;5005423;28;20034;-90
2024/03/21 03:17:26;;;;;;;5.93;4.17;;;4.80;99.90;;;;;;5006533;28;20034;-90
2024/03/21 03:19:52;;;;;;;6.27;4.37;;;4.80;99.90;;;;;;5006415;28;21085;-91
2024/03/21 03:22:17;;;;;;;8.13;4.50;;;4.80;99.90;;;;;;5004410;28;20045;-89
2024/03/21 03:24:43;;;;;;;7.60;4.83;;;4.80;99.90;;;;;;5006739;28;20053;-91
2024/03/21 03:27:08;;;;;;;10.00;4.93;;;4.80;99.90;;;;;;5007092;28;20025;-87
2024/03/21 03:29:34;;;;;;;7.83;4.60;;;4.80;99.90;;;;;;5006723;28;20049;-91
2024/03/21 03:32:03;;;;;;;9.87;4.70;;;4.80;99.90;;;;;;5007163;28;20046;-88
2024/03/21 03:37:15;;;;;;;5.85;4.53;;;4.80;99.90;;;;;;5007060;28;20036;-91
2024/03/21 03:39:40;;;;;;;13.60;4.07;;;4.80;99.90;;;;;;5006519;28;20034;-89
2024/03/21 03:42:06;;;;;;;14.10;4.87;;;4.80;99.90;;;;;;5006678;28;20019;-91
2024/03/21 03:44:32;;;;;;;7.20;4.57;;;4.80;99.90;;;;;;5006370;28;20034;-90
2024/03/21 03:46:57;;;;;;;9.10;4.30;;;4.80;99.90;;;;;;5005679;28;20089;-91
2024/03/21 03:49:23;;;;;;;7.83;4.20;;;4.80;99.90;;;;;;5005610;28;20022;-91
2024/03/21 03:51:48;;;;;;;7.63;4.47;;;4.90;99.90;;;;;;5007153;28;20054;-91
2024/03/21 03:54:14;;;;;;;9.63;4.30;;;4.90;99.90;;;;;;5021756;28;20098;-90
2024/03/21 03:56:40;;;;;;;8.67;4.80;;;4.90;99.90;;;;;;5006032;28;20035;-88
2024/03/21 03:59:06;;;;;;;7.30;4.27;;;4.90;99.90;;;;;;5005575;28;20030;-90
2024/03/21 04:01:31;;;;;;;7.20;4.13;;;4.90;99.90;;;;;;5005031;28;20021;-91
2024/03/21 04:03:57;;;;;;;6.00;4.07;;;4.90;99.90;;;;;;5005834;28;20129;-90
2024/03/21 04:06:23;;;;;;;9.83;4.40;;;4.90;99.90;;;;;;5005149;28;20093;-88
2024/03/21 04:08:48;;;;;;;5.93;3.67;;;4.90;99.90;;;;;;5005112;28;20283;-90
2024/03/21 04:11:15;;;;;;;6.70;4.07;;;4.90;99.90;;;;;;5003918;28;20027;-90
2024/03/21 04:13:41;;;;;;;14.40;5.10;;;4.90;99.90;;;;;;5004947;28;20195;-88
2024/03/21 04:16:16;;;;;;;10.13;4.47;;;4.90;99.90;;;;;;5005163;28;20075;-90
2024/03/21 04:18:41;;;;;;;17.42;5.68;;;4.90;99.90;;;;;;5008032;28;20030;-90
2024/03/21 04:21:07;;;;;;;16.60;4.80;;;4.90;99.90;;;;;;5008797;28;20106;-91
2024/03/21 04:23:33;;;;;;;13.73;4.80;;;5.00;99.90;;;;;;5008127;28;20046;-91
2024/03/21 04:25:58;;;;;;;16.00;5.40;;;5.00;99.90;;;;;;5006964;28;20082;-90
2024/03/21 04:28:24;;;;;;;12.67;4.40;;;5.00;99.90;;;;;;5006668;28;20094;-89
2024/03/21 04:30:49;;;;;;;13.30;4.20;;;5.10;99.90;;;;;;5008689;28;20492;-91
2024/03/21 04:33:16;;;;;;;9.07;4.17;;;5.20;99.90;;;;;;5006633;28;20022;-91
2024/03/21 04:35:41;;;;;;;15.07;4.20;;;5.20;99.90;;;;;;5023280;28;20030;-91
2024/03/21 04:38:08;;;;;;;13.13;4.60;;;5.20;99.90;;;;;;5007833;28;20030;-90
2024/03/21 04:40:34;;;;;;;8.10;3.97;;;5.20;99.90;;;;;;5008472;28;20058;-92
2024/03/21 04:43:00;;;;;;;10.83;5.47;;;5.30;99.90;;;;;;5008898;28;20029;-90
2024/03/21 04:45:26;;;;;;;16.80;7.27;;;5.30;99.90;;;;;;5008098;28;20010;-90
2024/03/21 04:47:52;;;;;;;17.10;7.40;;;5.30;99.90;;;;;;5009947;28;20034;-91
2024/03/21 04:50:18;;;;;;;15.77;7.57;;;5.30;99.90;;;;;;5010689;28;20053;-92
2024/03/21 04:52:44;;;;;;;17.60;7.23;;;5.30;99.90;;;;;;5009718;28;20081;-92
2024/03/21 04:55:11;;;;;;;10.77;6.17;;;5.30;99.90;;;;;;5009659;28;20046;-91
2024/03/21 04:57:37;;;;;;;9.07;5.43;;;5.40;99.90;;;;;;5010495;28;20017;-89
2024/03/21 05:00:04;;;;;;;10.70;5.83;;;5.40;99.90;;;;;;5009213;28;20027;-91
2024/03/21 05:02:30;;;;;;;14.13;5.90;;;5.40;99.90;;;;;;5010596;28;20034;-88
2024/03/21 05:04:56;;;;;;;13.73;5.63;;;5.40;99.90;;;;;;5009927;28;20025;-92
2024/03/21 05:07:22;;;;;;;16.83;8.23;;;5.40;99.90;;;;;;5009746;28;20049;-88
2024/03/21 05:09:48;;;;;;;20.60;8.43;;;5.50;99.90;;;;;;5009303;28;20034;-89
2024/03/21 05:12:14;;;;;;;20.93;9.10;;;5.50;99.90;;;;;;5008869;28;20022;-91
2024/03/21 05:14:39;;;;;;;22.13;7.50;;;5.50;99.90;;;;;;5023112;28;20094;-85
2024/03/21 05:17:05;;;;;;;14.10;5.70;;;5.50;99.90;;;;;;4985467;28;20026;-85
2024/03/21 05:19:31;;;;;;;15.17;4.60;;;5.60;99.90;;;;;;4984848;28;20034;-85
2024/03/21 05:21:56;;;;;;;6.00;4.00;;;5.50;99.90;;;;;;4982251;28;20045;-74
2024/03/21 05:24:22;;;;;;;6.60;3.80;;;5.60;99.90;;;;;;4983676;28;20767;-84
2024/03/21 05:26:48;;;;;;;17.00;4.37;;;5.60;99.90;;;;;;4989760;28;20034;-85
2024/03/21 05:29:13;;;;;;;11.67;3.80;;;5.60;99.90;;;;;;4992029;28;20019;-84
2024/03/21 05:31:40;;;;;;;7.37;3.27;;;5.70;99.90;;;;;;4992416;28;20030;-84
2024/03/21 05:34:06;;;;;;;5.10;3.10;;;5.70;99.90;;;;;;4993654;28;20038;-84
2024/03/21 05:36:31;;;;;;;11.80;3.37;;;5.70;99.90;;;;;;4992278;28;20319;-83
2024/03/21 05:38:57;;;;;;;9.90;3.03;;;5.70;99.90;;;;;;4992823;28;20034;-84
2024/03/21 05:41:23;;;;;;;6.47;3.30;;;5.80;99.90;;;;;;4991946;28;20341;-84
2024/03/21 05:43:48;;;;;;;7.43;3.47;;;5.80;99.90;;;;;;4992490;28;20033;-84
2024/03/21 05:46:14;;;;;;;6.90;2.80;;;5.80;99.90;;;;;;4992085;28;20026;-84
2024/03/21 05:48:41;;;;;;;10.97;3.07;;;5.90;99.90;;;;;;4991497;28;20085;-84
2024/03/21 05:51:07;;;;;;;8.03;2.80;;;6.00;99.90;;;;;;4993611;28;20113;-84
2024/03/21 05:53:32;;;;;;;9.23;3.17;;;6.00;99.90;;;;;;5007079;28;20062;-84
2024/03/21 05:56:07;;;;;;;7.73;3.17;;;6.10;99.90;;;;;;4990850;28;20102;-84
2024/03/21 05:58:34;;;;;;;8.93;3.00;;;6.10;99.90;;;;;;4990761;28;20029;-84
2024/03/21 06:03:34;;;;;;;10.87;3.50;;;6.30;99.90;;;;;;4992163;28;20042;-84
2024/03/21 06:06:00;;;;;;;20.87;4.93;;;6.40;99.90;;;;;;4990519;28;20058;-84
2024/03/21 06:08:26;;;;;;;12.10;3.70;;;6.50;99.90;;;;;;4984654;28;20061;-74
2024/03/21 06:10:51;;;;;;;12.70;3.47;;;6.70;99.90;;;;;;4980438;28;20117;-74
2024/03/21 06:13:17;;;;;;;6.27;2.80;;;6.80;99.90;;;;;;4980035;28;20139;-75
2024/03/21 06:15:43;;;;;;;7.87;2.70;;;6.90;99.90;;;;;;4977049;28;20121;-73
2024/03/21 06:18:08;;;;;;;5.83;2.90;;;7.00;99.90;;;;;;4977336;28;20136;-75
2024/03/21 06:20:34;;;;;;;12.47;2.53;;;7.10;99.90;;;;;;4985165;28;20022;-85
2024/03/21 06:23:00;;;;;;;13.33;3.63;;;7.20;99.90;;;;;;4984581;28;20161;-85
2024/03/21 06:25:26;;;;;;;10.13;3.77;;;7.40;99.90;;;;;;4982339;28;20035;-85
2024/03/21 06:27:52;;;;;;;10.90;4.50;;;7.50;99.90;;;;;;4982853;28;20027;-86
2024/03/21 06:30:17;;;;;;;14.80;5.23;;;7.60;99.90;;;;;;4978906;28;20038;-86
2024/03/21 06:32:43;;;;;;;14.03;3.93;;;7.70;99.90;;;;;;4982257;28;20026;-88
2024/03/21 06:35:12;;;;;;;9.80;3.53;;;7.70;99.90;;;;;;4996957;28;20061;-86
2024/03/21 06:37:38;;;;;;;4.67;2.97;;;7.80;99.90;;;;;;4980409;28;20065;-86
2024/03/21 06:40:04;;;;;;;12.93;2.73;;;7.90;99.90;;;;;;4980020;28;20038;-86
2024/03/21 06:42:31;;;;;;;8.00;2.60;;;8.00;99.90;;;;;;4981387;28;20117;-86
2024/03/21 06:44:58;;;;;;;4.83;2.20;;;8.10;99.90;;;;;;4980967;28;20106;-86
2024/03/21 06:47:24;;;;;;;4.17;2.27;;;8.20;99.90;;;;;;4981091;28;20059;-86
2024/03/21 06:49:49;;;;;;;4.23;2.47;;;8.30;99.90;;;;;;4981683;28;20462;-86
2024/03/21 06:52:15;;;;;;;11.73;3.63;;;8.40;99.90;;;;;;4979046;28;20030;-86
2024/03/21 06:54:41;;;;;;;4.53;2.03;;;8.40;99.90;;;;;;4981356;28;20100;-87
2024/03/21 06:57:07;;;;;;;5.10;2.20;;;8.50;99.90;;;;;;4980294;28;21624;-87
2024/03/21 06:59:32;;;;;;;7.57;2.17;;;8.70;99.90;;;;;;4982875;28;20037;-87
2024/03/21 07:01:58;;;;;;;6.53;2.30;;;8.80;99.90;;;;;;4983191;28;21400;-86
2024/03/21 07:04:23;;;;;;;7.37;2.43;;;8.90;99.90;;;;;;4981802;28;20026;-86
2024/03/21 07:06:49;;;;;;;5.60;2.50;;;9.00;99.90;;;;;;4979432;28;20358;-87
2024/03/21 07:09:16;;;;;;;4.27;2.03;;;9.10;99.90;;;;;;4980638;28;21011;-87
2024/03/21 07:11:42;;;;;;;8.27;2.23;;;9.20;99.90;;;;;;4981371;28;20510;-86
2024/03/21 07:14:08;;;;;;;6.40;2.30;;;9.40;99.90;;;;;;4981610;28;20046;-83
2024/03/21 07:16:34;;;;;;;5.53;2.20;;;9.60;99.90;;;;;;4983924;28;20029;-86
2024/03/21 07:18:59;;;;;;;3.70;2.00;;;9.80;99.90;;;;;;4984455;28;20023;-84
2024/03/21 07:21:26;;;;;;;6.27;2.00;;;10.10;99.90;;;;;;4985658;28;20150;-84
2024/03/21 07:23:52;;;;;;;3.80;2.20;;;10.30;99.90;;;;;;4986076;28;20054;-83
2024/03/21 07:26:18;;;;;;;5.23;1.90;;;10.70;99.90;;;;;;4987161;28;20050;-81
2024/03/21 07:28:43;;;;;;;3.63;2.10;;;11.00;99.90;;;;;;4982573;28;20041;-83
2024/03/21 07:31:09;;;;;;;3.93;2.00;;;11.40;99.90;;;;;;4983000;28;20057;-83
2024/03/21 07:33:34;;;;;;;4.60;2.10;;;11.70;99.90;;;;;;4984121;28;20340;-84
2024/03/21 07:36:01;;;;;;;4.55;2.05;;;12.00;99.90;;;;;;4983647;28;20109;-84
2024/03/21 07:38:27;;;;;;;6.00;2.25;;;12.20;99.90;;;;;;4983995;28;20019;-84
2024/03/21 07:40:56;;;;;;;7.00;2.28;;;12.40;99.90;;;;;;4984586;28;20077;-83
2024/03/21 07:43:22;;;;;;;2.67;1.80;;;12.70;99.90;;;;;;4982541;28;20128;-84
2024/03/21 07:45:48;;;;;;;3.88;1.90;;;12.80;99.90;;;;;;4983367;28;20030;-84
2024/03/21 07:48:13;;;;;;;5.35;1.92;;;12.90;99.90;;;;;;4983582;28;20132;-85
2024/03/21 07:50:39;;;;;;;2.95;2.00;;;13.00;99.90;;;;;;4985931;28;20160;-84
2024/03/21 07:53:06;;;;;;;9.10;2.30;;;13.10;99.90;;;;;;4986640;28;20027;-84
2024/03/21 07:55:32;;;;;;;3.63;2.00;;;13.10;99.90;;;;;;4987345;28;20058;-84
2024/03/21 07:58:00;;;;;;;6.95;2.28;;;13.20;99.90;;;;;;4987100;28;20026;-84
2024/03/21 08:00:26;;;;;;;4.90;2.00;;;13.20;99.90;;;;;;4986596;28;20065;-84
2024/03/21 08:02:52;;;;;;;3.28;2.20;;;13.20;99.90;;;;;;4988098;28;20034;-84
2024/03/21 08:05:17;;;;;;;3.95;2.08;;;13.20;99.90;;;;;;4987865;28;20739;-85
2024/03/21 08:07:43;;;;;;;4.32;2.15;;;13.30;99.90;;;;;;4987477;28;20561;-84
2024/03/21 08:10:09;;;;;;;6.32;2.42;;;13.40;99.90;;;;;;4985483;28;20576;-84
2024/03/21 08:12:34;;;;;;;4.28;2.13;;;13.40;99.90;;;;;;4987773;28;20030;-84
2024/03/21 08:15:00;;;;;;;5.20;2.10;;;13.50;99.90;;;;;;4987568;28;20042;-84
2024/03/21 08:17:26;;;;;;;4.35;2.13;;;13.60;99.90;;;;;;4987563;28;20054;-84
2024/03/21 08:19:54;;;;;;;5.82;2.13;;;13.60;99.90;;;;;;4987825;28;20027;-84
2024/03/21 08:22:22;;;;;;;4.45;2.50;;;13.60;99.90;;;;;;4988841;28;20038;-85
2024/03/21 08:24:50;;;;;;;5.13;2.30;;;13.60;99.90;;;;;;4988027;28;20109;-85
2024/03/21 08:27:18;;;;;;;4.82;2.53;;;13.60;99.90;;;;;;5002922;28;21209;-83
2024/03/21 08:29:45;;;;;;;5.18;2.40;;;13.70;99.90;;;;;;4986347;28;20026;-85
2024/03/21 08:32:12;;;;;;;4.25;2.25;;;13.90;99.90;;;;;;4986344;28;21085;-87
2024/03/21 08:34:37;;;;;;;5.35;2.10;;;14.00;99.90;;;;;;4984770;28;20039;-85
2024/03/21 08:37:03;;;;;;;5.15;2.00;;;14.20;99.90;;;;;;4984763;28;20061;-86
2024/03/21 08:39:28;;;;;;;5.22;1.83;;;14.30;99.90;;;;;;4985904;28;20077;-85
2024/03/21 08:41:54;;;;;;;5.63;2.05;;;14.40;99.90;;;;;;4985708;28;20032;-85
2024/03/21 08:44:19;;;;;;;7.10;1.98;;;14.30;99.90;;;;;;4986825;28;20042;-84
2024/03/21 08:46:45;;;;;;;8.82;2.22;;;14.30;99.90;;;;;;4986639;28;20027;-83
2024/03/21 08:49:12;;;;;;;4.40;1.60;;;14.20;99.90;;;;;;4984412;28;20026;-83
2024/03/21 08:51:38;;;;;;;6.50;2.10;;;14.00;99.90;;;;;;4986248;28;20037;-84
2024/03/21 08:54:04;;;;;;;5.88;2.40;;;13.90;99.90;;;;;;4986526;28;20038;-85
2024/03/21 08:56:31;;;;;;;4.53;2.38;;;13.70;99.90;;;;;;5002031;28;20023;-84
2024/03/21 08:58:56;;;;;;;4.38;2.40;;;13.50;99.90;;;;;;4986819;28;20244;-84
2024/03/21 09:01:22;;;;;;;6.05;2.42;;;13.30;99.90;;;;;;4985999;28;20086;-83
2024/03/21 09:03:48;;;;;;;7.57;2.95;;;12.90;99.90;;;;;;4982987;28;20046;-84
2024/03/21 09:06:14;;;;;;;6.72;2.65;;;12.60;99.90;;;;;;4988881;28;20034;-81
2024/03/21 09:08:39;;;;;;;5.60;2.67;;;12.50;99.90;;;;;;4985621;28;20458;-81
2024/03/21 09:11:05;;;;;;;5.55;3.08;;;12.20;99.90;;;;;;4986181;28;20131;-81
2024/03/21 09:13:31;;;;;;;8.82;2.80;;;12.10;99.90;;;;;;4983936;28;20700;-81
2024/03/21 09:15:57;;;;;;;5.57;3.15;;;12.00;99.90;;;;;;4988967;28;20049;-80
2024/03/21 09:18:23;;;;;;;4.13;3.10;;;11.80;99.90;;;;;;4992002;28;20065;-88
2024/03/21 09:20:50;;;;;;;6.40;3.20;;;11.80;99.90;;;;;;5009801;28;20027;-84
2024/03/21 09:23:16;;;;;;;8.18;3.30;;;11.70;99.90;;;;;;4996606;28;20072;-84
2024/03/21 09:25:42;;;;;;;6.18;3.60;;;11.60;99.90;;;;;;4994312;28;20048;-83
2024/03/21 09:28:07;;;;;;;12.48;3.85;;;11.50;99.90;;;;;;4992540;28;20032;-83
2024/03/21 09:30:33;;;;;;;6.43;3.30;;;11.40;99.90;;;;;;4992791;28;20026;-82
2024/03/21 09:32:58;;;;;;;9.38;3.78;;;11.40;99.90;;;;;;4993684;28;20129;-83
2024/03/21 09:35:24;;;;;;;7.45;4.13;;;11.30;99.90;;;;;;4992274;28;20098;-84
2024/03/21 09:37:49;;;;;;;7.40;3.65;;;11.40;99.90;;;;;;4992473;28;20093;-82
2024/03/21 09:40:17;;;;;;;5.27;3.57;;;11.30;99.90;;;;;;4986662;28;20040;-77
2024/03/21 09:42:43;;;;;;;7.70;4.03;;;11.10;99.90;;;;;;4987345;28;20094;-83
2024/03/21 09:45:20;;;;;;;6.40;3.80;;;11.10;99.90;;;;;;4990652;28;20190;-83
2024/03/21 09:47:46;;;;;;;6.80;3.90;;;11.00;99.90;;;;;;4992952;28;20030;-82
2024/03/21 09:50:12;;;;;;;9.47;4.13;;;11.00;99.90;;;;;;4993268;28;20031;-82
2024/03/21 09:52:38;;;;;;;7.22;3.97;;;11.00;99.90;;;;;;4992941;28;20922;-81
2024/03/21 09:55:15;;;;;;;8.95;4.32;;;10.90;99.90;;;;;;5008168;28;20140;-82
2024/03/21 09:57:41;;;;;;;6.30;4.30;;;11.00;99.90;;;;;;4994028;28;20064;-82
2024/03/21 10:00:16;;;;;;;8.45;4.40;;;11.00;99.90;;;;;;4994478;28;20026;-82
2024/03/21 10:02:44;;;;;;;7.32;4.30;;;10.90;99.90;;;;;;4994086;28;20042;-82
2024/03/21 10:05:21;;;;;;;6.97;4.70;;;11.00;99.90;;;;;;4991922;28;20086;-82
2024/03/21 10:07:48;;;;;;;6.83;5.10;;;11.00;99.90;;;;;;5005995;28;20052;-83
2024/03/21 10:10:14;;;;;;;7.80;4.83;;;10.80;99.90;;;;;;4990957;28;20034;-84
2024/03/21 10:12:40;;;;;;;7.57;5.10;;;10.70;99.90;;;;;;4990865;28;20097;-84
2024/03/21 10:15:12;;;;;;;7.57;5.70;;;10.70;99.90;;;;;;4990614;28;20077;-82
2024/03/21 10:17:37;;;;;;;7.80;4.67;;;10.70;99.90;;;;;;4989068;28;20034;-83
2024/03/21 10:20:03;;;;;;;6.50;5.00;;;10.60;99.90;;;;;;4991553;28;20029;-83
2024/03/21 10:22:32;;;;;;;8.73;5.70;;;10.60;99.90;;;;;;4991884;28;20541;-83
2024/03/21 10:24:58;;;;;;;11.40;5.13;;;10.50;99.90;;;;;;4991036;28;20060;-83
2024/03/21 10:27:23;;;;;;;8.87;4.80;;;10.50;99.90;;;;;;4992661;28;21446;-84
2024/03/21 10:29:50;;;;;;;7.63;5.43;;;10.50;99.90;;;;;;4992265;28;20037;-83
2024/03/21 10:32:23;;;;;;;11.93;6.07;;;10.50;99.90;;;;;;4993673;28;20169;-83
2024/03/21 10:34:52;;;;;;;7.97;4.87;;;10.50;99.90;;;;;;4992755;28;20052;-83
2024/03/21 10:37:22;;;;;;;13.00;6.07;;;10.50;99.90;;;;;;4992742;28;20029;-83
2024/03/21 10:39:50;;;;;;;9.23;5.13;;;10.50;99.90;;;;;;4993614;28;20036;-83
2024/03/21 10:42:38;;;;;;;7.80;5.70;;;10.50;99.90;;;;;;4992675;28;20371;-83
2024/03/21 10:45:04;;;;;;;10.77;5.93;;;10.50;99.90;;;;;;4992162;28;20330;-83
2024/03/21 10:47:31;;;;;;;10.67;6.20;;;10.50;99.90;;;;;;4992416;28;20045;-83
2024/03/21 10:49:57;;;;;;;9.63;6.03;;;10.50;99.90;;;;;;4993713;28;20561;-83
2024/03/21 10:52:22;;;;;;;13.97;5.90;;;10.50;99.90;;;;;;4994023;28;20034;-83
2024/03/21 10:54:52;;;;;;;12.17;6.17;;;10.50;99.90;;;;;;4991778;28;20038;-83
2024/03/21 10:57:24;;;;;;;10.67;6.00;;;10.50;99.90;;;;;;4993046;28;20034;-83
2024/03/21 11:00:06;;;;;;;11.00;5.87;;;10.50;99.90;;;;;;4993926;28;20030;-83
2024/03/21 11:02:32;;;;;;;7.47;5.37;;;10.50;99.90;;;;;;4992727;28;20029;-83
2024/03/21 11:05:14;;;;;;;8.60;5.17;;;10.50;99.90;;;;;;4991816;28;20034;-84
2024/03/21 11:07:40;;;;;;;7.93;5.40;;;10.50;99.90;;;;;;4993362;28;20042;-84
2024/03/21 11:10:07;;;;;;;9.03;6.23;;;10.50;99.90;;;;;;4993233;28;20038;-83
2024/03/21 11:12:36;;;;;;;9.13;6.03;;;10.50;99.90;;;;;;4992749;28;20041;-83
2024/03/21 11:15:02;;;;;;;10.13;5.97;;;10.50;99.90;;;;;;5007958;28;20045;-84
2024/03/21 11:17:28;;;;;;;8.43;5.43;;;10.60;99.90;;;;;;4991941;28;20026;-83
2024/03/21 11:19:53;;;;;;;9.30;5.80;;;10.60;99.90;;;;;;4993403;28;20018;-83
2024/03/21 11:22:19;;;;;;;6.33;5.00;;;10.60;99.90;;;;;;4993594;28;20026;-83
2024/03/21 11:24:44;;;;;;;7.73;6.00;;;10.60;99.90;;;;;;4994016;28;20102;-84
2024/03/21 11:27:19;;;;;;;8.30;5.07;;;10.70;99.90;;;;;;4996863;28;20110;-83
2024/03/21 11:29:45;;;;;;;9.13;5.15;;;10.70;99.90;;;;;;4995323;28;21317;-83
2024/03/21 11:32:20;;;;;;;7.97;5.13;;;10.80;99.90;;;;;;4996799;28;20045;-83
2024/03/21 11:34:46;;;;;;;9.27;5.47;;;10.90;99.90;;;;;;4994896;28;20255;-84
2024/03/21 11:37:14;;;;;;;8.90;5.27;;;11.00;99.90;;;;;;4992731;28;20113;-84
2024/03/21 11:39:39;;;;;;;6.03;4.17;;;11.10;99.90;;;;;;4993999;28;20041;-83
2024/03/21 11:42:11;;;;;;;7.63;4.10;;;11.20;99.90;;;;;;4996713;28;20031;-83
2024/03/21 11:44:39;;;;;;;5.77;4.10;;;11.20;99.90;;;;;;4995659;28;20041;-84
2024/03/21 11:47:08;;;;;;;7.15;4.25;;;11.20;99.90;;;;;;4994760;28;20042;-84
2024/03/21 11:49:35;;;;;;;9.35;4.70;;;11.30;99.90;;;;;;4996229;28;20030;-83
2024/03/21 11:52:01;;;;;;;6.18;3.97;;;11.30;99.90;;;;;;4996481;28;20137;-84
2024/03/21 11:54:26;;;;;;;8.57;4.17;;;11.40;99.90;;;;;;4993975;28;20121;-84
2024/03/21 11:56:53;;;;;;;7.07;4.40;;;11.50;99.90;;;;;;4994782;28;20033;-84
2024/03/21 11:59:19;;;;;;;6.43;4.30;;;11.50;99.90;;;;;;4997419;28;20039;-83
2024/03/21 12:01:44;;;;;;;6.10;4.47;;;11.50;99.90;;;;;;4996187;28;20104;-83
2024/03/21 12:04:10;;;;;;;7.53;4.47;;;11.50;99.90;;;;;;4997227;28;20443;-84
2024/03/21 12:06:35;;;;;;;7.45;4.25;;;11.60;99.90;;;;;;4997102;28;20038;-83
2024/03/21 12:09:01;;;;;;;7.43;4.35;;;11.60;99.90;;;;;;4994939;28;20108;-84
2024/03/21 12:11:27;;;;;;;6.32;3.95;;;11.70;99.90;;;;;;4991641;28;20482;-85
2024/03/21 12:13:52;;;;;;;5.53;3.90;;;11.70;99.90;;;;;;5007040;28;20039;-85
2024/03/21 12:16:19;;;;;;;6.93;4.20;;;11.80;99.90;;;;;;4991094;28;20031;-84
2024/03/21 12:18:45;;;;;;;5.63;4.03;;;11.80;99.90;;;;;;4990736;28;20679;-85
2024/03/21 12:21:16;;;;;;;5.68;3.88;;;11.80;99.90;;;;;;4988833;28;20494;-85
2024/03/21 12:23:42;;;;;;;6.70;4.47;;;11.70;99.90;;;;;;4994462;28;20050;-85
2024/03/21 12:26:12;;;;;;;7.28;4.40;;;11.70;99.90;;;;;;4994627;28;20031;-85
2024/03/21 12:28:39;;;;;;;7.18;4.50;;;11.70;99.90;;;;;;4994939;28;20500;-85
2024/03/21 12:31:09;;;;;;;6.43;4.47;;;11.70;99.90;;;;;;4995094;28;20046;-87
2024/03/21 12:33:35;;;;;;;6.72;4.22;;;11.70;99.90;;;;;;4994811;28;20557;-86
2024/03/21 12:36:00;;;;;;;9.27;5.07;;;11.60;99.90;;;;;;4993940;28;20034;-85
2024/03/21 12:38:26;;;;;;;6.60;4.72;;;11.60;99.90;;;;;;4995331;28;20034;-85
2024/03/21 12:40:52;;;;;;;7.13;4.85;;;11.60;99.90;;;;;;5011288;28;20030;-84
2024/03/21 12:43:17;;;;;;;7.25;5.00;;;11.60;99.90;;;;;;4995955;28;20034;-84
2024/03/21 12:45:45;;;;;;;11.05;5.40;;;11.60;99.90;;;;;;4992811;28;20049;-84
2024/03/21 12:48:10;;;;;;;6.60;4.90;;;11.70;99.90;;;;;;4994352;28;20048;-85
2024/03/21 12:50:36;;;;;;;6.85;5.35;;;11.70;99.90;;;;;;4997235;28;20050;-85
2024/03/21 12:53:01;;;;;;;8.93;5.20;;;11.80;99.90;;;;;;5015164;28;20039;-84